CDT,Max TemperatureF,Mean TemperatureF,Min TemperatureF,Max Dew PointF,MeanDew PointF,Min DewpointF,Max Humidity, Mean Humidity, Min Humidity, Max Sea Level PressureIn, Mean Sea Level PressureIn, Min Sea Level PressureIn, Max VisibilityMiles, Mean VisibilityMiles, Min VisibilityMiles, Max Wind SpeedMPH, Mean Wind SpeedMPH, Max Gust SpeedMPH,PrecipitationIn, CloudCover, Events, WindDirDegrees
2011-10-1,64,45,26,37,32,27,100,64,28,30.40,30.32,30.26,10,10,8,13,5,16,0.00,0,,142
2011-10-2,78,55,32,38,34,30,89,55,20,30.30,30.23,30.16,10,10,8,16,6,20,0.00,0,,189
2011-10-3,81,59,37,40,34,28,82,49,15,30.25,30.21,30.17,10,9,5,16,5,20,0.00,0,,175
2011-10-4,84,60,36,39,36,32,82,50,18,30.24,30.17,30.09,10,9,2,23,9,28,0.00,0,,155
2011-10-5,85,66,46,45,42,39,92,57,22,30.25,30.11,30.05,10,9,2,21,9,25,0.00,0,,160
2011-10-6,82,65,47,49,44,38,80,51,21,30.13,30.06,30.00,10,10,9,26,13,33,0.00,0,,148
2011-10-7,84,71,58,57,53,49,80,61,42,30.04,30.00,29.92,10,10,8,37,20,48,0.00,1,,167
2011-10-8,85,72,58,57,53,50,72,56,40,30.15,30.08,30.00,10,10,8,24,13,32,0.00,1,,172
2011-10-9,82,66,50,53,50,48,89,61,33,30.27,30.18,30.13,10,10,8,23,10,31,0.00,0,,153
2011-10-10,77,62,47,56,50,45,100,72,43,30.11,30.03,29.96,10,8,0,23,9,31,T,2,Fog-Rain,165
2011-10-11,76,60,44,59,51,45,100,71,41,29.98,29.92,29.81,10,4,0,18,9,23,0.00,4,Fog,169
2011-10-12,66,59,55,58,55,51,100,92,77,29.80,29.72,29.65,10,6,2,13,7,,0.46,6,Rain-Thunderstorm,156
2011-10-13,64,54,46,55,48,39,100,80,43,29.71,29.68,29.65,10,8,4,25,13,33,0.04,3,Rain,305
2011-10-14,58,51,43,45,41,32,92,69,45,29.90,29.78,29.58,10,10,10,32,18,40,0.00,4,,295
2011-10-15,62,50,38,41,37,31,92,61,30,29.98,29.91,29.84,10,10,10,22,10,29,T,1,Rain,289
2011-10-16,59,48,37,43,35,26,92,60,28,29.98,29.92,29.83,10,10,10,30,13,40,0.02,1,Rain,305
2011-10-17,58,46,33,33,29,24,82,56,30,29.97,29.94,29.88,10,10,10,26,13,32,0.00,0,,282
2011-10-18,44,38,32,34,31,28,85,71,57,30.04,29.98,29.88,10,10,10,23,14,29,0.00,6,,331
2011-10-19,48,41,34,34,32,30,85,70,54,30.07,30.03,30.00,10,10,10,26,15,31,T,7,Rain,352
2011-10-20,54,43,31,34,29,25,92,62,32,30.03,29.97,29.92,10,10,10,28,14,35,0.00,1,,328
2011-10-21,62,44,25,35,30,23,92,64,35,30.12,30.06,30.03,10,10,4,15,7,18,0.00,0,,243
2011-10-22,65,50,34,38,33,27,92,59,26,30.14,30.08,30.02,10,9,2,12,5,18,0.00,0,,335
2011-10-23,69,51,32,46,39,28,92,63,33,30.00,29.92,29.80,10,10,7,25,10,32,0.02,3,,247
2011-10-24,71,50,29,43,33,29,100,63,25,30.10,30.03,29.93,10,6,0,20,5,23,0.00,0,Fog,246
2011-10-25,72,57,42,48,42,39,89,65,41,29.96,29.81,29.68,10,10,10,25,13,32,0.00,2,,63
2011-10-26,52,46,40,38,35,32,86,68,50,30.10,30.06,29.97,10,10,9,17,9,20,0.00,6,,354
2011-10-27,53,39,25,36,28,21,100,65,30,30.15,30.10,30.06,10,7,0,17,6,39,0.00,1,Fog,306
2011-10-28,56,40,24,31,22,19,81,54,26,30.14,30.10,30.06,10,10,10,25,11,31,0.00,1,,256
2011-10-29,56,39,21,27,21,17,81,52,22,30.13,30.04,29.92,10,10,10,16,8,22,0.00,1,,193
2011-10-30,52,46,40,38,31,23,70,54,38,29.99,29.87,29.80,10,10,10,26,15,33,0.00,6,,287
2011-10-31,53,40,26,34,29,25,92,65,38,30.08,30.03,29.99,10,10,7,14,8,17,0.00,2,,249